Time;durP1;ratioP1;P1;durP2;ratioP2;P2;SDS_P1;SDS_P2;PMS_P1;PMS_P2;Temp;Humidity;BMP_temperature;BMP_pressure;BME280_temperature;BME280_humidity;BME280_pressure;Samples;Min_cycle;Max_cycle;Signal;HPM_P1;HPM_P2
2023/02/02 00:02:00;;;;;;;5.28;1.67;;;;;;;;;;5071032;28;20059;-67
2023/02/02 00:04:35;;;;;;;4.75;1.90;;;;;;;;;;5071038;28;20064;-67
2023/02/02 00:07:06;;;;;;;5.18;1.70;;;;;;;;;;5053972;28;20520;-67
2023/02/02 00:09:36;;;;;;;6.38;2.92;;;;;;;;;;5071351;28;20423;-67
2023/02/02 00:12:06;;;;;;;4.32;2.35;;;;;;;;;;5054142;28;20458;-67
2023/02/02 00:14:36;;;;;;;4.70;1.58;;;;;;;;;;5070750;28;20503;-66
2023/02/02 00:17:09;;;;;;;5.18;1.38;;;;;;;;;;5070812;28;20060;-66
2023/02/02 00:19:39;;;;;;;7.07;1.92;;;;;;;;;;5034400;28;20496;-65
2023/02/02 00:22:09;;;;;;;5.28;1.30;;;;;;;;;;5050752;28;20053;-67
2023/02/02 00:24:39;;;;;;;5.72;1.30;;;;;;;;;;5050069;28;20060;-67
2023/02/02 00:27:09;;;;;;;6.32;1.33;;;;;;;;;;5033836;28;20492;-67
2023/02/02 00:29:39;;;;;;;10.18;1.38;;;;;;;;;;5050632;28;20045;-67
2023/02/02 00:32:09;;;;;;;10.95;1.58;;;;;;;;;;5016945;28;20487;-67
2023/02/02 00:34:40;;;;;;;2.78;1.23;;;;;;;;;;5017340;28;20059;-66
2023/02/02 00:37:10;;;;;;;4.32;1.30;;;;;;;;;;5017175;28;20055;-67
2023/02/02 00:39:40;;;;;;;8.55;1.60;;;;;;;;;;4981244;28;20528;-68
2023/02/02 00:42:13;;;;;;;6.97;1.38;;;;;;;;;;4961778;28;20453;-65
2023/02/02 00:47:31;;;;;;;7.57;1.50;;;;;;;;;;5012671;28;20067;-65
2023/02/02 00:50:01;;;;;;;9.05;1.77;;;;;;;;;;5010345;28;20522;-66
2023/02/02 00:52:32;;;;;;;4.40;2.47;;;;;;;;;;5010257;28;20093;-65
2023/02/02 00:55:02;;;;;;;8.10;1.85;;;;;;;;;;4977948;28;20053;-66
2023/02/02 00:57:32;;;;;;;8.13;1.60;;;;;;;;;;5022522;28;20060;-66
2023/02/02 01:00:03;;;;;;;6.07;1.50;;;;;;;;;;5029763;28;20053;-68
2023/02/02 01:02:34;;;;;;;7.03;1.42;;;;;;;;;;4965416;28;20413;-68
2023/02/02 01:05:05;;;;;;;7.90;1.35;;;;;;;;;;4974578;28;20050;-68
2023/02/02 01:07:35;;;;;;;4.45;1.50;;;;;;;;;;4935622;29;20065;-68
2023/02/02 01:10:08;;;;;;;4.55;1.58;;;;;;;;;;4951747;28;20059;-67
2023/02/02 01:12:38;;;;;;;5.32;1.33;;;;;;;;;;4951380;28;20059;-67
2023/02/02 01:15:10;;;;;;;3.78;1.17;;;;;;;;;;4951846;28;20499;-67
2023/02/02 01:17:40;;;;;;;5.60;1.30;;;;;;;;;;4951450;28;20055;-68
2023/02/02 01:20:16;;;;;;;5.50;1.15;;;;;;;;;;4964140;28;20413;-68
2023/02/02 01:22:47;;;;;;;3.95;1.60;;;;;;;;;;4970939;28;20058;-67
2023/02/02 01:25:18;;;;;;;7.13;2.05;;;;;;;;;;4970736;28;20127;-67
2023/02/02 01:27:48;;;;;;;3.55;1.30;;;;;;;;;;4938978;28;20065;-66
2023/02/02 01:30:18;;;;;;;4.90;1.20;;;;;;;;;;4916333;29;20058;-66
2023/02/02 01:32:48;;;;;;;5.00;1.27;;;;;;;;;;4932035;29;20048;-65
2023/02/02 01:35:20;;;;;;;2.90;1.42;;;;;;;;;;4882990;29;20349;-65
2023/02/02 01:37:51;;;;;;;6.07;1.50;;;;;;;;;;4894171;29;20052;-66
2023/02/02 01:40:21;;;;;;;5.40;1.80;;;;;;;;;;4894416;29;20060;-67
2023/02/02 01:42:51;;;;;;;4.78;1.25;;;;;;;;;;4910219;29;20059;-66
2023/02/02 01:45:27;;;;;;;13.57;1.52;;;;;;;;;;4961897;28;20603;-67
2023/02/02 01:47:59;;;;;;;6.72;1.50;;;;;;;;;;4970382;28;20056;-66
2023/02/02 01:50:33;;;;;;;4.75;1.63;;;;;;;;;;4934927;28;20047;-67
2023/02/02 01:53:05;;;;;;;9.02;1.90;;;;;;;;;;4951163;29;20070;-66
2023/02/02 01:55:38;;;;;;;2.50;1.23;;;;;;;;;;4951482;28;20070;-66
2023/02/02 01:58:26;;;;;;;6.90;1.75;;;;;;;;;;4952530;28;20415;-66
2023/02/02 02:00:56;;;;;;;6.30;1.90;;;;;;;;;;4955191;28;20423;-66
2023/02/02 02:03:30;;;;;;;5.40;2.17;;;;;;;;;;4955083;28;20059;-67
2023/02/02 02:06:08;;;;;;;7.22;2.03;;;;;;;;;;4939350;28;20060;-66
2023/02/02 02:08:53;;;;;;;5.97;1.75;;;;;;;;;;4985288;28;20046;-67
2023/02/02 02:11:24;;;;;;;4.93;1.40;;;;;;;;;;4976741;28;20054;-67
2023/02/02 02:17:13;;;;;;;6.40;2.15;;;;;;;;;;5013153;28;20053;-67
2023/02/02 02:26:45;;;;;;;3.58;0.90;;;;;;;;;;4993070;28;20050;-67
2023/02/02 02:29:18;;;;;;;3.53;1.00;;;;;;;;;;4911405;28;20058;-67
2023/02/02 02:32:12;;;;;;;4.13;0.93;;;;;;;;;;4954195;29;20058;-67
2023/02/02 02:35:17;;;;;;;4.75;1.10;;;;;;;;;;4954316;29;20054;-66
2023/02/02 02:37:53;;;;;;;4.55;1.02;;;;;;;;;;4935252;29;20523;-67
2023/02/02 02:40:39;;;;;;;3.42;1.00;;;;;;;;;;4900478;29;20060;-67
2023/02/02 02:43:26;;;;;;;5.45;1.10;;;;;;;;;;4885022;29;20173;-67
2023/02/02 02:45:56;;;;;;;4.22;1.10;;;;;;;;;;4909486;29;20063;-66
2023/02/02 02:48:28;;;;;;;6.82;1.23;;;;;;;;;;4896986;29;20056;-67
2023/02/02 02:51:28;;;;;;;5.03;0.88;;;;;;;;;;4859747;29;20060;-66
2023/02/02 02:53:58;;;;;;;4.18;1.15;;;;;;;;;;4896886;29;20378;-67
2023/02/02 02:56:34;;;;;;;5.03;1.23;;;;;;;;;;4896957;29;20060;-66
2023/02/02 02:59:08;;;;;;;4.72;1.33;;;;;;;;;;4897126;29;20064;-67
2023/02/02 03:01:54;;;;;;;4.47;1.30;;;;;;;;;;4896883;29;20068;-67
2023/02/02 03:04:49;;;;;;;5.18;1.25;;;;;;;;;;4897311;29;20060;-67
2023/02/02 03:07:29;;;;;;;3.60;1.17;;;;;;;;;;4896870;29;20068;-67
2023/02/02 03:10:01;;;;;;;4.45;1.60;;;;;;;;;;4877953;29;20394;-65
2023/02/02 03:12:32;;;;;;;5.60;1.40;;;;;;;;;;4926387;29;20056;-66
2023/02/02 03:15:05;;;;;;;4.78;1.90;;;;;;;;;;4947099;28;20073;-65
2023/02/02 03:17:35;;;;;;;6.47;1.60;;;;;;;;;;4972850;28;20499;-67
2023/02/02 03:20:06;;;;;;;6.10;1.70;;;;;;;;;;4973258;28;20554;-67
2023/02/02 03:22:36;;;;;;;5.75;1.70;;;;;;;;;;4960538;28;20057;-67
2023/02/02 03:25:09;;;;;;;6.57;2.15;;;;;;;;;;4980903;28;20062;-65
2023/02/02 03:27:40;;;;;;;3.92;1.60;;;;;;;;;;5031769;28;20065;-67
2023/02/02 03:30:12;;;;;;;5.25;2.15;;;;;;;;;;5031798;28;20061;-67
2023/02/02 03:32:44;;;;;;;6.18;1.75;;;;;;;;;;5050833;28;20053;-68
2023/02/02 03:35:15;;;;;;;5.30;1.55;;;;;;;;;;5035678;28;20041;-66
2023/02/02 03:37:46;;;;;;;5.63;1.55;;;;;;;;;;5051694;28;20056;-67
2023/02/02 03:40:16;;;;;;;6.18;1.70;;;;;;;;;;5035065;28;20397;-66
2023/02/02 03:42:46;;;;;;;8.43;2.28;;;;;;;;;;5051712;28;20067;-68
2023/02/02 03:45:16;;;;;;;5.18;2.03;;;;;;;;;;5051460;28;20057;-67
2023/02/02 03:47:46;;;;;;;7.85;2.33;;;;;;;;;;5034759;28;20048;-67
2023/02/02 03:50:17;;;;;;;6.05;2.20;;;;;;;;;;5051716;28;20400;-67
2023/02/02 03:52:47;;;;;;;7.05;2.03;;;;;;;;;;5001731;28;20056;-67
2023/02/02 03:55:17;;;;;;;5.45;2.30;;;;;;;;;;5040366;28;20064;-67
2023/02/02 03:57:47;;;;;;;7.47;2.30;;;;;;;;;;5093712;28;20044;-67
2023/02/02 04:00:18;;;;;;;7.45;2.13;;;;;;;;;;5093879;28;20048;-68
2023/02/02 04:02:48;;;;;;;7.93;2.33;;;;;;;;;;5074619;28;20052;-66
2023/02/02 04:05:18;;;;;;;6.85;2.42;;;;;;;;;;5093721;28;20058;-66
2023/02/02 04:07:49;;;;;;;8.80;2.40;;;;;;;;;;5093388;28;20098;-67
2023/02/02 04:10:19;;;;;;;6.75;2.50;;;;;;;;;;5093659;28;20050;-66
2023/02/02 04:12:49;;;;;;;7.43;2.95;;;;;;;;;;5040998;28;20052;-66
2023/02/02 04:15:19;;;;;;;9.05;2.72;;;;;;;;;;5093681;28;20040;-67
2023/02/02 04:17:50;;;;;;;8.90;3.20;;;;;;;;;;5050462;28;20056;-66
2023/02/02 04:20:20;;;;;;;8.27;2.67;;;;;;;;;;5051168;28;20068;-67
2023/02/02 04:22:50;;;;;;;10.60;3.05;;;;;;;;;;5051068;28;20120;-67
2023/02/02 04:25:20;;;;;;;7.18;2.83;;;;;;;;;;5050538;28;20049;-67
2023/02/02 04:27:51;;;;;;;8.52;2.60;;;;;;;;;;5050523;28;20044;-66
2023/02/02 04:30:21;;;;;;;6.63;2.95;;;;;;;;;;5050764;28;20127;-67
2023/02/02 04:32:51;;;;;;;9.50;3.03;;;;;;;;;;5050411;28;20084;-67
2023/02/02 04:35:21;;;;;;;11.10;2.85;;;;;;;;;;5050788;28;20060;-66
2023/02/02 04:37:54;;;;;;;5.72;2.50;;;;;;;;;;5050569;28;20060;-66
2023/02/02 04:40:25;;;;;;;5.60;2.13;;;;;;;;;;5001258;28;20060;-67
2023/02/02 04:42:57;;;;;;;7.75;2.20;;;;;;;;;;5050043;28;20161;-67
2023/02/02 04:45:27;;;;;;;6.95;2.38;;;;;;;;;;5050350;28;20560;-67
2023/02/02 04:47:57;;;;;;;7.88;2.65;;;;;;;;;;5013933;28;20129;-67
2023/02/02 04:50:27;;;;;;;7.53;2.92;;;;;;;;;;5030310;28;20122;-67
2023/02/02 04:52:57;;;;;;;10.73;2.83;;;;;;;;;;5030009;28;20517;-67
2023/02/02 04:55:27;;;;;;;6.60;2.08;;;;;;;;;;5040138;28;20417;-66
2023/02/02 04:57:58;;;;;;;6.68;2.20;;;;;;;;;;5050143;28;20084;-67
2023/02/02 05:00:28;;;;;;;6.85;2.35;;;;;;;;;;5033265;28;20049;-67
2023/02/02 05:02:59;;;;;;;8.10;2.70;;;;;;;;;;5017192;28;20057;-67
2023/02/02 05:05:29;;;;;;;5.50;2.53;;;;;;;;;;5050041;28;20056;-67
2023/02/02 05:07:59;;;;;;;4.43;2.25;;;;;;;;;;5009878;28;20050;-67
2023/02/02 05:10:29;;;;;;;6.32;2.63;;;;;;;;;;5010253;28;20068;-67
2023/02/02 05:12:59;;;;;;;5.80;2.20;;;;;;;;;;4961653;28;20080;-67
2023/02/02 05:15:29;;;;;;;4.97;2.35;;;;;;;;;;4946070;28;20057;-67
2023/02/02 05:17:59;;;;;;;7.97;2.20;;;;;;;;;;5010053;28;20065;-67
2023/02/02 05:20:29;;;;;;;6.80;2.63;;;;;;;;;;5010206;28;20151;-67
2023/02/02 05:22:59;;;;;;;7.57;2.65;;;;;;;;;;4977725;28;20505;-68
2023/02/02 05:25:30;;;;;;;7.57;2.28;;;;;;;;;;5028987;28;20059;-67
2023/02/02 05:28:01;;;;;;;4.95;1.95;;;;;;;;;;5049612;28;20076;-66
2023/02/02 05:30:31;;;;;;;4.47;2.13;;;;;;;;;;5049787;28;20052;-67
2023/02/02 05:33:03;;;;;;;3.85;1.80;;;;;;;;;;5032191;28;20412;-67
2023/02/02 05:35:33;;;;;;;4.72;1.75;;;;;;;;;;5049542;28;20057;-67
2023/02/02 05:38:03;;;;;;;5.28;2.10;;;;;;;;;;5049645;28;20052;-67
2023/02/02 05:40:33;;;;;;;4.55;1.80;;;;;;;;;;5001195;28;20053;-67
2023/02/02 05:43:03;;;;;;;5.63;1.73;;;;;;;;;;5049470;28;20049;-66
2023/02/02 05:45:33;;;;;;;4.18;1.90;;;;;;;;;;5069599;28;20052;-66
2023/02/02 05:48:03;;;;;;;8.38;1.85;;;;;;;;;;5057256;28;20507;-67
2023/02/02 05:50:33;;;;;;;4.05;1.38;;;;;;;;;;5089729;28;20070;-67
2023/02/02 05:53:04;;;;;;;9.55;3.17;;;;;;;;;;5072928;28;20060;-67
2023/02/02 05:55:34;;;;;;;9.90;2.67;;;;;;;;;;5091609;28;20047;-65
2023/02/02 05:58:05;;;;;;;7.32;2.03;;;;;;;;;;5091788;28;20405;-66
2023/02/02 06:00:36;;;;;;;6.03;1.60;;;;;;;;;;5091707;28;20407;-66
2023/02/02 06:03:07;;;;;;;6.78;2.38;;;;;;;;;;5055943;28;20056;-66
2023/02/02 06:05:38;;;;;;;4.63;2.25;;;;;;;;;;5091818;28;20499;-66
2023/02/02 06:08:08;;;;;;;5.53;1.67;;;;;;;;;;5091783;28;20044;-67
2023/02/02 06:10:40;;;;;;;4.60;1.85;;;;;;;;;;5055957;28;20635;-66
2023/02/02 06:13:12;;;;;;;5.32;2.10;;;;;;;;;;5056675;28;20051;-66
2023/02/02 06:15:42;;;;;;;3.08;1.65;;;;;;;;;;5091705;28;20553;-67
2023/02/02 06:18:12;;;;;;;5.10;1.60;;;;;;;;;;5091662;28;20051;-67
2023/02/02 06:20:42;;;;;;;5.45;1.90;;;;;;;;;;5055949;28;20422;-67
2023/02/02 06:23:12;;;;;;;5.20;1.63;;;;;;;;;;5091671;28;20044;-67
2023/02/02 06:25:42;;;;;;;5.30;1.80;;;;;;;;;;5091638;28;20059;-66
2023/02/02 06:28:12;;;;;;;7.97;1.92;;;;;;;;;;5091674;28;20051;-67
2023/02/02 06:30:42;;;;;;;7.40;1.77;;;;;;;;;;5091612;28;20047;-67
2023/02/02 06:33:12;;;;;;;3.90;1.73;;;;;;;;;;5056946;28;20056;-67
2023/02/02 06:35:43;;;;;;;3.22;1.38;;;;;;;;;;5091721;28;20055;-67
2023/02/02 06:38:13;;;;;;;4.65;1.60;;;;;;;;;;5091828;28;20044;-66
2023/02/02 06:40:43;;;;;;;8.18;1.85;;;;;;;;;;5089330;28;20071;-67
2023/02/02 06:43:15;;;;;;;3.53;1.58;;;;;;;;;;5091634;28;20410;-66
2023/02/02 06:45:45;;;;;;;5.72;1.92;;;;;;;;;;5025885;28;20052;-67
2023/02/02 06:48:15;;;;;;;5.90;2.20;;;;;;;;;;5059204;28;20418;-68
2023/02/02 06:50:45;;;;;;;8.07;1.52;;;;;;;;;;5059321;28;20060;-66
2023/02/02 06:53:21;;;;;;;6.82;1.45;;;;;;;;;;5095196;28;20044;-66
2023/02/02 06:55:55;;;;;;;5.97;1.40;;;;;;;;;;5027352;28;20067;-67
2023/02/02 06:58:25;;;;;;;3.47;1.40;;;;;;;;;;5076206;28;20051;-67
2023/02/02 07:01:03;;;;;;;4.38;1.40;;;;;;;;;;5060230;28;20174;-67
2023/02/02 07:03:34;;;;;;;8.50;1.73;;;;;;;;;;5094963;28;20040;-67
2023/02/02 07:06:11;;;;;;;6.75;1.33;;;;;;;;;;5059291;28;20052;-67
2023/02/02 07:08:41;;;;;;;5.20;1.25;;;;;;;;;;5075885;28;20048;-67
2023/02/02 07:11:11;;;;;;;3.42;1.40;;;;;;;;;;5094796;28;20052;-67
2023/02/02 07:13:46;;;;;;;2.67;0.95;;;;;;;;;;5094737;28;20048;-67
2023/02/02 07:16:18;;;;;;;6.30;1.42;;;;;;;;;;5075484;28;20052;-67
2023/02/02 07:18:48;;;;;;;4.40;1.27;;;;;;;;;;5042508;28;20052;-67
2023/02/02 07:21:24;;;;;;;5.90;1.70;;;;;;;;;;5042260;28;20052;-67
2023/02/02 07:23:54;;;;;;;4.95;1.52;;;;;;;;;;5075535;28;20557;-67
2023/02/02 07:26:24;;;;;;;13.23;1.67;;;;;;;;;;5058783;28;20060;-67
2023/02/02 07:28:54;;;;;;;5.07;1.70;;;;;;;;;;5094475;28;20044;-66
2023/02/02 07:31:26;;;;;;;3.85;1.58;;;;;;;;;;5058379;28;20044;-67
2023/02/02 07:33:56;;;;;;;4.22;1.80;;;;;;;;;;5094061;28;20047;-66
2023/02/02 07:36:26;;;;;;;4.03;1.50;;;;;;;;;;5094172;28;20043;-67
2023/02/02 07:38:56;;;;;;;3.15;1.00;;;;;;;;;;5027141;28;20052;-67
2023/02/02 07:41:26;;;;;;;5.63;1.10;;;;;;;;;;5059552;28;20060;-66
2023/02/02 07:43:56;;;;;;;3.83;1.17;;;;;;;;;;5094189;28;20043;-67
2023/02/02 07:46:26;;;;;;;1.98;1.15;;;;;;;;;;5093856;28;20043;-66
2023/02/02 07:48:57;;;;;;;5.40;1.50;;;;;;;;;;5094162;28;20048;-67
2023/02/02 07:51:27;;;;;;;3.08;1.23;;;;;;;;;;5093968;28;20032;-66
2023/02/02 07:53:58;;;;;;;2.38;1.00;;;;;;;;;;5093835;28;20039;-66
2023/02/02 07:56:29;;;;;;;6.80;1.88;;;;;;;;;;5057640;28;20048;-67
2023/02/02 07:58:59;;;;;;;3.00;1.40;;;;;;;;;;5058006;28;20064;-67
2023/02/02 08:01:29;;;;;;;7.75;1.30;;;;;;;;;;5075180;28;20059;-67
2023/02/02 08:04:02;;;;;;;4.10;1.33;;;;;;;;;;5042099;28;20062;-67
2023/02/02 08:06:35;;;;;;;3.63;1.10;;;;;;;;;;5093405;28;20044;-66
2023/02/02 08:09:07;;;;;;;5.47;1.55;;;;;;;;;;5041623;28;20056;-66
2023/02/02 08:11:38;;;;;;;3.13;1.50;;;;;;;;;;5093763;28;20052;-65
2023/02/02 08:14:12;;;;;;;7.82;1.45;;;;;;;;;;5058719;28;20052;-67
2023/02/02 08:16:42;;;;;;;2.60;1.00;;;;;;;;;;5070525;28;20067;-66
2023/02/02 08:19:13;;;;;;;6.90;1.13;;;;;;;;;;5071034;28;20053;-66
2023/02/02 08:21:43;;;;;;;4.28;1.40;;;;;;;;;;5054290;28;20060;-66
2023/02/02 08:24:12;;;;;;;3.17;1.27;;;;;;;;;;5070428;28;20048;-67
2023/02/02 08:26:43;;;;;;;3.08;1.27;;;;;;;;;;5054265;28;20483;-66
2023/02/02 08:29:16;;;;;;;2.30;0.93;;;;;;;;;;5020942;28;20068;-66
2023/02/02 08:31:47;;;;;;;3.22;1.20;;;;;;;;;;5070530;28;20543;-64
2023/02/02 08:34:17;;;;;;;1.85;1.13;;;;;;;;;;5036842;28;20052;-66
2023/02/02 08:36:47;;;;;;;2.95;1.23;;;;;;;;;;5037002;28;20064;-65
2023/02/02 08:39:16;;;;;;;3.65;1.17;;;;;;;;;;5037155;28;20060;-66
2023/02/02 08:41:46;;;;;;;7.78;1.33;;;;;;;;;;5070247;28;20060;-67
2023/02/02 08:44:17;;;;;;;5.28;1.30;;;;;;;;;;5054042;28;20056;-67
2023/02/02 08:46:47;;;;;;;3.75;1.40;;;;;;;;;;5049969;28;20394;-65
2023/02/02 08:49:17;;;;;;;3.55;1.27;;;;;;;;;;5050208;28;20052;-67
2023/02/02 08:51:47;;;;;;;6.93;1.50;;;;;;;;;;5000723;28;20089;-65
2023/02/02 08:54:16;;;;;;;3.15;1.17;;;;;;;;;;5010591;28;20079;-67
2023/02/02 08:56:46;;;;;;;4.32;1.25;;;;;;;;;;5037479;28;20539;-67
2023/02/02 08:59:16;;;;;;;4.53;1.48;;;;;;;;;;5069940;28;20068;-64
2023/02/02 09:01:46;;;;;;;3.63;1.05;;;;;;;;;;5070199;28;20447;-66
2023/02/02 09:04:16;;;;;;;4.20;1.30;;;;;;;;;;5069655;28;20495;-65
2023/02/02 09:06:46;;;;;;;3.38;1.13;;;;;;;;;;5009972;28;20057;-66
2023/02/02 09:09:17;;;;;;;11.73;1.58;;;;;;;;;;4993778;28;20065;-65
2023/02/02 09:11:47;;;;;;;7.38;1.13;;;;;;;;;;4961567;28;20054;-65
2023/02/02 09:14:17;;;;;;;4.15;1.17;;;;;;;;;;4961342;28;20057;-65
2023/02/02 09:16:47;;;;;;;6.07;1.60;;;;;;;;;;4961562;28;20054;-65
2023/02/02 09:19:17;;;;;;;3.55;1.38;;;;;;;;;;5009909;28;20065;-65
2023/02/02 09:21:49;;;;;;;3.15;1.65;;;;;;;;;;4977343;28;20433;-65
2023/02/02 09:24:19;;;;;;;2.95;1.27;;;;;;;;;;5000401;28;20490;-64
2023/02/02 09:26:49;;;;;;;3.97;1.17;;;;;;;;;;4990573;28;20054;-65
2023/02/02 09:29:22;;;;;;;3.30;1.30;;;;;;;;;;4957389;28;20050;-65
2023/02/02 09:31:52;;;;;;;3.85;1.15;;;;;;;;;;4990499;28;20062;-65
2023/02/02 09:34:22;;;;;;;3.20;0.90;;;;;;;;;;4975920;28;20062;-65
2023/02/02 09:36:53;;;;;;;5.07;1.38;;;;;;;;;;4996614;28;20060;-64
2023/02/02 09:39:23;;;;;;;3.03;1.23;;;;;;;;;;4996825;28;20069;-65
2023/02/02 09:42:11;;;;;;;2.78;1.20;;;;;;;;;;5029578;28;20053;-65
2023/02/02 09:45:07;;;;;;;5.88;1.30;;;;;;;;;;5067497;28;20070;-65
2023/02/02 09:48:00;;;;;;;4.05;1.30;;;;;;;;;;5056334;28;20052;-65
2023/02/02 09:50:52;;;;;;;4.38;1.20;;;;;;;;;;5091927;28;20063;-65
2023/02/02 09:53:29;;;;;;;2.30;1.10;;;;;;;;;;5091818;28;20518;-65
2023/02/02 09:56:06;;;;;;;3.22;1.20;;;;;;;;;;5091897;28;20047;-65
2023/02/02 09:58:46;;;;;;;4.18;1.23;;;;;;;;;;5091841;28;20036;-65
2023/02/02 10:01:22;;;;;;;3.35;1.20;;;;;;;;;;5056043;28;20123;-65
2023/02/02 10:04:02;;;;;;;3.35;1.20;;;;;;;;;;5056302;28;20503;-65
2023/02/02 10:06:38;;;;;;;3.92;1.15;;;;;;;;;;5091978;28;20047;-65
2023/02/02 10:09:15;;;;;;;2.78;0.85;;;;;;;;;;5072739;28;20483;-65
2023/02/02 10:12:25;;;;;;;2.05;1.15;;;;;;;;;;5012589;28;20053;-65
2023/02/02 10:15:11;;;;;;;4.05;1.40;;;;;;;;;;4970427;28;20062;-65
2023/02/02 10:18:04;;;;;;;3.80;1.42;;;;;;;;;;4954454;28;20051;-65
2023/02/02 10:20:36;;;;;;;6.85;2.03;;;;;;;;;;4916259;29;20505;-65
2023/02/02 10:23:35;;;;;;;9.57;1.92;;;;;;;;;;4916591;29;20179;-65
2023/02/02 10:26:08;;;;;;;9.98;2.55;;;;;;;;;;4826129;29;20061;-65
2023/02/02 10:29:01;;;;;;;5.13;1.80;;;;;;;;;;4826739;29;20085;-65
2023/02/02 10:31:31;;;;;;;7.72;1.35;;;;;;;;;;4841811;29;20054;-65
2023/02/02 10:34:40;;;;;;;5.28;1.73;;;;;;;;;;4842064;29;20522;-65
2023/02/02 10:37:19;;;;;;;5.80;1.50;;;;;;;;;;4805498;29;20063;-65
2023/02/02 10:40:01;;;;;;;5.50;2.30;;;;;;;;;;4805437;29;20424;-65
2023/02/02 10:45:47;;;;;;;3.90;1.77;;;;;;;;;;4805132;29;20757;-65
2023/02/02 10:48:29;;;;;;;4.38;1.77;;;;;;;;;;4806360;29;20524;-65
2023/02/02 10:51:06;;;;;;;4.82;2.03;;;;;;;;;;4847887;29;20061;-65
2023/02/02 10:53:37;;;;;;;3.22;1.45;;;;;;;;;;4878188;29;20056;-65
2023/02/02 10:56:12;;;;;;;4.18;1.50;;;;;;;;;;4878270;29;20061;-65
2023/02/02 10:58:54;;;;;;;5.22;2.45;;;;;;;;;;4895283;29;20063;-66
2023/02/02 11:01:24;;;;;;;4.13;1.90;;;;;;;;;;4881348;29;20079;-65
2023/02/02 11:06:48;;;;;;;5.10;1.83;;;;;;;;;;5012296;28;20394;-65
2023/02/02 11:09:41;;;;;;;4.68;2.13;;;;;;;;;;4996048;28;20045;-65
2023/02/02 11:12:32;;;;;;;3.95;1.75;;;;;;;;;;5012345;28;20054;-65
2023/02/02 11:15:06;;;;;;;3.58;1.50;;;;;;;;;;5064433;28;20499;-65
2023/02/02 11:17:37;;;;;;;3.85;1.65;;;;;;;;;;5092136;28;20052;-65
2023/02/02 11:20:33;;;;;;;3.80;1.30;;;;;;;;;;5009192;28;20048;-65
2023/02/02 11:23:06;;;;;;;2.78;1.20;;;;;;;;;;5092321;28;20052;-65
2023/02/02 11:25:38;;;;;;;3.55;1.80;;;;;;;;;;5055008;28;20048;-65
2023/02/02 11:28:26;;;;;;;6.07;1.40;;;;;;;;;;5055621;28;20056;-64
2023/02/02 11:30:56;;;;;;;5.22;1.17;;;;;;;;;;5054538;28;20056;-65
2023/02/02 11:33:33;;;;;;;3.67;1.20;;;;;;;;;;5073661;28;20067;-64
2023/02/02 11:36:21;;;;;;;2.03;0.82;;;;;;;;;;5072882;28;20037;-65
2023/02/02 11:39:21;;;;;;;2.60;0.90;;;;;;;;;;5071572;28;20044;-66
2023/02/02 11:41:57;;;;;;;3.63;0.80;;;;;;;;;;5054897;28;20056;-65
2023/02/02 11:44:31;;;;;;;4.10;1.00;;;;;;;;;;5073984;28;20045;-65
2023/02/02 11:47:04;;;;;;;1.30;0.77;;;;;;;;;;5038515;28;20692;-65
2023/02/02 11:49:42;;;;;;;1.75;0.80;;;;;;;;;;5073731;28;20483;-65
2023/02/02 11:52:24;;;;;;;1.10;0.70;;;;;;;;;;5054399;28;20059;-65
2023/02/02 11:55:01;;;;;;;2.75;0.82;;;;;;;;;;5055356;28;20057;-65
2023/02/02 11:57:31;;;;;;;3.03;1.00;;;;;;;;;;5087842;28;20044;-66
2023/02/02 12:00:11;;;;;;;2.97;0.80;;;;;;;;;;5054945;28;20491;-65
2023/02/02 12:02:48;;;;;;;1.95;1.17;;;;;;;;;;5038179;28;20055;-66
2023/02/02 12:05:22;;;;;;;2.13;0.70;;;;;;;;;;5055055;28;20059;-66
2023/02/02 12:07:52;;;;;;;2.00;0.88;;;;;;;;;;5054606;28;20056;-66
2023/02/02 12:10:36;;;;;;;1.80;0.75;;;;;;;;;;5054229;28;20059;-65
2023/02/02 12:13:28;;;;;;;1.10;0.63;;;;;;;;;;5054429;28;20419;-66
2023/02/02 12:16:25;;;;;;;3.70;1.30;;;;;;;;;;5072976;28;20044;-65
2023/02/02 12:19:31;;;;;;;4.38;1.52;;;;;;;;;;5073319;28;20051;-66
2023/02/02 12:22:09;;;;;;;2.95;1.30;;;;;;;;;;5070910;28;20052;-66
2023/02/02 12:25:01;;;;;;;3.97;1.38;;;;;;;;;;5076694;28;20527;-65
2023/02/02 12:27:56;;;;;;;3.35;1.00;;;;;;;;;;5093008;28;20044;-66
2023/02/02 12:30:53;;;;;;;3.15;1.20;;;;;;;;;;5093395;28;20052;-67
2023/02/02 12:33:47;;;;;;;2.20;1.10;;;;;;;;;;5093076;28;20055;-67
2023/02/02 12:36:38;;;;;;;2.30;0.82;;;;;;;;;;5023991;28;20051;-67
2023/02/02 12:39:33;;;;;;;4.50;1.23;;;;;;;;;;5092907;28;20044;-65
2023/02/02 12:42:24;;;;;;;1.55;0.63;;;;;;;;;;5092325;28;20047;-66
2023/02/02 12:45:01;;;;;;;0.82;0.50;;;;;;;;;;5092927;28;20051;-65
2023/02/02 12:47:55;;;;;;;1.80;0.90;;;;;;;;;;5040838;28;20056;-65
2023/02/02 12:50:46;;;;;;;2.03;0.80;;;;;;;;;;5057124;28;20055;-64
2023/02/02 12:53:54;;;;;;;1.88;0.80;;;;;;;;;;5092779;28;20522;-64
2023/02/02 12:57:25;;;;;;;3.22;0.60;;;;;;;;;;5092427;28;20036;-64
2023/02/02 12:59:55;;;;;;;2.45;0.50;;;;;;;;;;5030075;28;20064;-64
2023/02/02 13:02:59;;;;;;;1.25;0.52;;;;;;;;;;5029989;28;20053;-64
2023/02/02 13:05:47;;;;;;;3.13;0.70;;;;;;;;;;5029959;28;20049;-64
2023/02/02 13:08:25;;;;;;;1.25;0.57;;;;;;;;;;5030065;28;20060;-64
2023/02/02 13:11:00;;;;;;;;;;;;;;;;;;5030307;28;20068;-64
2023/02/02 13:13:36;;;;;;;2.33;0.60;;;;;;;;;;5013504;28;19928;-65
2023/02/02 13:16:13;;;;;;;1.77;0.60;;;;;;;;;;5029915;28;20049;-65
2023/02/02 13:18:52;;;;;;;1.05;0.40;;;;;;;;;;4996763;28;20057;-64
2023/02/02 13:21:25;;;;;;;1.42;0.50;;;;;;;;;;5029751;28;20057;-65
2023/02/02 13:24:02;;;;;;;4.78;0.95;;;;;;;;;;4996702;28;20053;-66
2023/02/02 13:26:43;;;;;;;2.75;0.95;;;;;;;;;;5029314;28;20056;-66
2023/02/02 13:29:27;;;;;;;1.73;0.95;;;;;;;;;;4996857;28;20045;-65
2023/02/02 13:32:38;;;;;;;1.95;0.93;;;;;;;;;;5029808;28;20437;-66
2023/02/02 13:35:33;;;;;;;1.92;1.00;;;;;;;;;;5009710;28;20058;-65
2023/02/02 13:38:20;;;;;;;4.20;1.23;;;;;;;;;;5027748;28;20060;-66
2023/02/02 13:40:55;;;;;;;4.03;1.08;;;;;;;;;;5029632;28;20483;-65
2023/02/02 13:43:37;;;;;;;4.63;1.13;;;;;;;;;;4984167;28;20057;-65
2023/02/02 13:46:44;;;;;;;2.40;1.15;;;;;;;;;;5029574;28;20505;-65
2023/02/02 13:49:30;;;;;;;3.00;1.20;;;;;;;;;;4970760;28;20059;-65
2023/02/02 13:52:34;;;;;;;1.55;1.00;;;;;;;;;;4970820;28;20530;-65
2023/02/02 13:55:33;;;;;;;5.22;1.30;;;;;;;;;;4957739;28;20513;-65
2023/02/02 13:58:27;;;;;;;2.85;1.55;;;;;;;;;;4974443;28;20051;-65
2023/02/02 14:01:04;;;;;;;2.72;1.13;;;;;;;;;;4943196;28;20066;-65
2023/02/02 14:03:43;;;;;;;3.42;1.50;;;;;;;;;;4974650;28;20059;-65
2023/02/02 14:06:16;;;;;;;4.05;1.33;;;;;;;;;;4942386;28;20065;-66
2023/02/02 14:08:48;;;;;;;2.28;1.00;;;;;;;;;;4974406;28;20058;-65
2023/02/02 14:11:41;;;;;;;5.40;1.45;;;;;;;;;;4987876;28;20162;-65
2023/02/02 14:14:32;;;;;;;5.03;1.50;;;;;;;;;;4993961;28;20094;-65
2023/02/02 14:17:15;;;;;;;2.78;1.17;;;;;;;;;;4993708;28;20075;-65
2023/02/02 14:19:57;;;;;;;2.63;1.30;;;;;;;;;;4993903;28;20073;-66
2023/02/02 14:22:39;;;;;;;2.97;0.82;;;;;;;;;;4993903;28;20453;-66
2023/02/02 14:25:36;;;;;;;2.42;0.50;;;;;;;;;;5009869;28;20059;-66
2023/02/02 14:28:12;;;;;;;2.45;0.57;;;;;;;;;;5059963;28;20439;-66
2023/02/02 14:30:42;;;;;;;1.65;0.70;;;;;;;;;;5095595;28;20063;-66
2023/02/02 14:33:26;;;;;;;0.65;0.30;;;;;;;;;;5076335;28;20052;-66
2023/02/02 14:35:59;;;;;;;1.90;0.40;;;;;;;;;;5076518;28;20051;-66
2023/02/02 14:38:36;;;;;;;0.40;0.30;;;;;;;;;;5095120;28;20051;-65
2023/02/02 14:41:11;;;;;;;0.60;0.30;;;;;;;;;;5052587;28;20539;-65
2023/02/02 14:43:49;;;;;;;0.70;0.30;;;;;;;;;;5052657;28;20057;-65
2023/02/02 14:46:33;;;;;;;3.85;0.47;;;;;;;;;;5052774;28;20060;-66
2023/02/02 14:49:03;;;;;;;0.50;0.30;;;;;;;;;;5019500;28;20064;-65
2023/02/02 14:51:44;;;;;;;0.85;0.17;;;;;;;;;;5052677;28;20049;-66
2023/02/02 14:54:24;;;;;;;0.95;0.30;;;;;;;;;;5052487;28;20048;-66
2023/02/02 14:57:19;;;;;;;0.45;0.20;;;;;;;;;;5035954;28;20571;-65
2023/02/02 14:59:53;;;;;;;0.35;0.35;;;;;;;;;;5052260;28;20068;-63
2023/02/02 15:02:32;;;;;;;0.75;0.30;;;;;;;;;;5068846;28;20060;-64
2023/02/02 15:05:23;;;;;;;0.80;0.30;;;;;;;;;;5018893;28;20053;-63
2023/02/02 15:08:06;;;;;;;0.77;0.30;;;;;;;;;;5052120;28;20049;-65
2023/02/02 15:11:26;;;;;;;1.20;0.30;;;;;;;;;;5052031;28;20048;-63
2023/02/02 15:14:05;;;;;;;1.58;0.25;;;;;;;;;;5012270;28;20046;-63
2023/02/02 15:16:37;;;;;;;1.02;0.30;;;;;;;;;;5012368;28;20054;-64
2023/02/02 15:19:19;;;;;;;0.85;0.55;;;;;;;;;;5038555;28;20057;-64
2023/02/02 15:21:52;;;;;;;0.38;0.20;;;;;;;;;;5012093;28;20053;-64
2023/02/02 15:24:27;;;;;;;0.35;0.20;;;;;;;;;;4978966;28;20069;-65
2023/02/02 15:27:01;;;;;;;5.13;0.65;;;;;;;;;;4995757;28;20045;-65
2023/02/02 15:29:35;;;;;;;2.08;0.28;;;;;;;;;;4995642;28;20041;-65
2023/02/02 15:32:06;;;;;;;0.95;0.30;;;;;;;;;;4979568;28;20057;-65
2023/02/02 15:34:36;;;;;;;;;;;;;;;;;;4995886;28;20058;-65
2023/02/02 15:37:12;;;;;;;0.57;0.30;;;;;;;;;;4979012;28;19921;-65
2023/02/02 15:39:47;;;;;;;1.60;0.40;;;;;;;;;;4995362;28;20060;-65
2023/02/02 15:45:46;;;;;;;0.38;0.20;;;;;;;;;;4995302;28;20058;-65
2023/02/02 15:48:29;;;;;;;0.25;0.20;;;;;;;;;;5011776;28;20058;-65
2023/02/02 15:51:13;;;;;;;0.73;0.60;;;;;;;;;;4993596;28;20053;-65
2023/02/02 15:53:43;;;;;;;3.35;0.47;;;;;;;;;;5016343;28;20052;-65
2023/02/02 15:56:28;;;;;;;0.32;0.20;;;;;;;;;;5054621;28;20064;-65
2023/02/02 15:59:00;;;;;;;0.40;0.32;;;;;;;;;;5071281;28;20072;-65